createdAt,value
2023-01-13T00:00:24.388Z,0.79
2023-01-13T00:03:26.817Z,0.67
2023-01-13T00:06:29.494Z,0.65
2023-01-13T00:09:37.153Z,0.69
2023-01-13T00:12:41.068Z,0.68
2023-01-13T00:15:43.642Z,0.63
2023-01-13T00:18:47.409Z,0.56
2023-01-13T00:21:49.812Z,0.57
2023-01-13T00:24:52.216Z,0.49
2023-01-13T00:27:54.581Z,0.50
2023-01-13T00:31:04.059Z,0.64
2023-01-13T00:34:06.503Z,0.65
2023-01-13T00:37:12.912Z,0.77
2023-01-13T00:40:15.336Z,0.80
2023-01-13T00:43:23.326Z,0.69
2023-01-13T00:46:25.922Z,0.62
2023-01-13T00:49:28.625Z,0.60
2023-01-13T00:52:32.977Z,0.55
2023-01-13T00:55:35.403Z,0.60
2023-01-13T00:58:38.038Z,0.65
2023-01-13T01:01:41.577Z,0.63
2023-01-13T01:04:44.209Z,0.62
2023-01-13T01:07:46.654Z,0.57
2023-01-13T01:10:49.454Z,0.56
2023-01-13T01:13:53.955Z,0.56
2023-01-13T01:16:56.335Z,0.58
2023-01-13T01:19:58.765Z,0.64
2023-01-13T01:23:01.264Z,0.68
2023-01-13T01:26:09.109Z,0.75
2023-01-13T01:29:13.981Z,0.77
2023-01-13T01:32:16.387Z,0.69
2023-01-13T01:35:18.732Z,0.66
2023-01-13T01:38:23.356Z,0.65
2023-01-13T01:41:28.778Z,0.70
2023-01-13T01:44:43.259Z,0.74
2023-01-13T01:47:49.588Z,0.81
2023-01-13T01:50:53.163Z,0.94
2023-01-13T01:53:56.979Z,0.94
2023-01-13T01:56:59.632Z,0.93
2023-01-13T02:00:05.012Z,1.08
2023-01-13T02:03:16.440Z,1.15
2023-01-13T02:06:19.357Z,1.15
2023-01-13T02:09:21.765Z,1.18
2023-01-13T02:12:29.559Z,1.24
2023-01-13T02:15:52.932Z,1.32
2023-01-13T02:19:16.530Z,1.44
2023-01-13T02:23:29.716Z,1.49
2023-01-13T02:26:49.834Z,1.59
2023-01-13T02:30:29.822Z,1.46
2023-01-13T02:34:01.680Z,1.49
2023-01-13T02:37:11.927Z,1.42
2023-01-13T02:40:26.747Z,1.37
2023-01-13T02:43:55.177Z,1.38
2023-01-13T02:47:20.446Z,1.36
2023-01-13T02:50:30.734Z,1.32
2023-01-13T02:53:41.546Z,1.35
2023-01-13T02:56:47.773Z,1.40
2023-01-13T02:59:53.119Z,1.36
2023-01-13T03:02:55.742Z,1.34
2023-01-13T03:06:29.864Z,1.32
2023-01-13T03:09:55.420Z,1.26
2023-01-13T03:13:20.802Z,1.23
2023-01-13T03:16:31.808Z,1.24
2023-01-13T03:20:06.949Z,1.26
2023-01-13T03:23:30.266Z,1.30
2023-01-13T03:26:51.194Z,1.39
2023-01-13T03:30:27.064Z,1.39
2023-01-13T03:33:41.657Z,1.37
2023-01-13T03:36:49.313Z,1.24
2023-01-13T03:39:57.850Z,1.26
2023-01-13T03:43:24.620Z,1.25
2023-01-13T03:46:35.043Z,1.25
2023-01-13T03:49:54.042Z,1.17
2023-01-13T03:53:02.839Z,1.17
2023-01-13T03:56:12.912Z,1.18
2023-01-13T03:59:24.186Z,1.15
2023-01-13T04:02:48.684Z,1.14
2023-01-13T04:05:58.280Z,1.16
2023-01-13T04:09:13.263Z,1.24
2023-01-13T04:12:51.810Z,1.34
2023-01-13T04:15:54.873Z,1.44
2023-01-13T04:18:57.422Z,1.48
2023-01-13T04:21:59.959Z,1.40
2023-01-13T04:25:02.432Z,1.37
2023-01-13T04:28:05.084Z,1.44
2023-01-13T04:31:07.738Z,1.41
2023-01-13T04:34:10.806Z,1.37
2023-01-13T04:37:13.301Z,1.48
2023-01-13T04:40:16.698Z,1.49
2023-01-13T04:43:19.136Z,1.50
2023-01-13T04:46:21.555Z,1.66
2023-01-13T04:49:24.208Z,1.65
2023-01-13T04:52:26.923Z,1.73
2023-01-13T04:55:29.675Z,1.63
2023-01-13T04:58:32.151Z,1.57
2023-01-13T05:01:34.768Z,1.50
2023-01-13T05:04:37.328Z,1.44
2023-01-13T05:07:39.901Z,1.40
2023-01-13T05:10:42.962Z,1.39
2023-01-13T05:14:03.678Z,1.38
2023-01-13T05:17:09.065Z,1.26
2023-01-13T05:20:12.736Z,1.27
2023-01-13T05:23:33.600Z,1.26
2023-01-13T05:26:36.129Z,1.26
2023-01-13T05:29:38.664Z,1.25
2023-01-13T05:32:41.340Z,1.18
2023-01-13T05:35:45.758Z,1.30
2023-01-13T05:38:48.228Z,1.28
2023-01-13T05:42:08.865Z,1.24
2023-01-13T05:45:12.303Z,1.19
2023-01-13T05:48:15.461Z,1.16
2023-01-13T05:51:19.776Z,1.15
2023-01-13T05:54:22.321Z,1.10
2023-01-13T05:57:24.799Z,1.05
2023-01-13T06:00:27.609Z,1.06
2023-01-13T06:03:30.131Z,1.00
2023-01-13T06:06:32.855Z,0.96
2023-01-13T06:09:36.394Z,1.02
2023-01-13T06:12:38.890Z,1.06
2023-01-13T06:15:41.329Z,1.08
2023-01-13T06:18:43.837Z,1.18
2023-01-13T06:21:46.480Z,1.27
2023-01-13T06:24:56.036Z,1.31
2023-01-13T06:27:59.972Z,1.22
2023-01-13T06:31:07.485Z,1.21
2023-01-13T06:34:14.121Z,1.27
2023-01-13T06:37:20.227Z,1.19
2023-01-13T06:40:24.147Z,1.19
2023-01-13T06:43:26.897Z,1.12
2023-01-13T06:46:29.528Z,1.11
2023-01-13T06:49:32.291Z,1.19
2023-01-13T06:52:34.879Z,1.21
2023-01-13T06:55:37.475Z,1.27
2023-01-13T06:58:40.405Z,1.33
2023-01-13T07:01:43.575Z,1.38
2023-01-13T07:04:46.978Z,1.40
2023-01-13T07:07:49.505Z,1.51
2023-01-13T07:10:53.152Z,1.65
2023-01-13T07:14:17.493Z,1.76
2023-01-13T07:17:25.381Z,1.81
2023-01-13T07:20:31.351Z,1.86
2023-01-13T07:23:36.953Z,1.98
2023-01-13T07:26:39.536Z,2.02
2023-01-13T07:29:42.057Z,2.12
2023-01-13T07:32:44.775Z,2.23
2023-01-13T07:35:55.365Z,2.39
2023-01-13T07:38:57.994Z,2.50
2023-01-13T07:42:19.259Z,2.65
2023-01-13T07:45:22.007Z,2.79
2023-01-13T07:48:25.220Z,2.94
2023-01-13T07:51:28.055Z,3.04
2023-01-13T07:54:40.024Z,3.22
2023-01-13T07:57:48.773Z,3.48
2023-01-13T08:00:53.283Z,3.57
2023-01-13T08:03:56.381Z,3.64
2023-01-13T08:06:58.904Z,3.69
2023-01-13T08:10:02.445Z,3.66
2023-01-13T08:13:21.174Z,3.64
2023-01-13T08:16:24.302Z,3.49
2023-01-13T08:19:26.922Z,3.55
2023-01-13T08:22:31.123Z,3.64
2023-01-13T08:25:33.636Z,3.59
2023-01-13T08:28:36.555Z,3.71
2023-01-13T08:31:39.276Z,3.80
2023-01-13T08:34:42.102Z,3.84
2023-01-13T08:37:46.045Z,3.83
2023-01-13T08:40:48.849Z,3.81
2023-01-13T08:43:53.774Z,3.84
2023-01-13T08:46:58.815Z,3.93
2023-01-13T08:50:01.472Z,4.01
2023-01-13T08:53:04.096Z,4.00
2023-01-13T08:56:11.023Z,3.87
2023-01-13T08:59:15.753Z,3.90
2023-01-13T09:02:21.083Z,3.83
2023-01-13T09:05:23.923Z,3.78
2023-01-13T09:08:26.524Z,3.59
2023-01-13T09:11:53.294Z,3.56
2023-01-13T09:14:59.264Z,3.51
2023-01-13T09:18:02.750Z,3.53
2023-01-13T09:21:05.618Z,3.57
2023-01-13T09:24:08.742Z,3.58
2023-01-13T09:27:12.801Z,3.75
2023-01-13T09:30:16.720Z,3.91
2023-01-13T09:33:37.499Z,4.06
2023-01-13T09:36:40.322Z,4.19
2023-01-13T09:39:43.229Z,4.09
2023-01-13T09:43:19.530Z,4.22
2023-01-13T09:46:47.521Z,4.17
2023-01-13T09:49:51.041Z,4.06
2023-01-13T09:52:53.790Z,4.00
2023-01-13T09:55:56.538Z,4.05
2023-01-13T09:58:59.085Z,3.96
2023-01-13T10:02:26.004Z,3.90
2023-01-13T10:05:52.974Z,3.89
2023-01-13T10:09:42.923Z,4.00
2023-01-13T10:13:11.661Z,4.15
2023-01-13T10:16:21.413Z,4.24
2023-01-13T10:20:10.504Z,4.20
2023-01-13T10:23:22.109Z,4.29
2023-01-13T10:26:46.207Z,4.41
2023-01-13T10:29:48.787Z,4.36
2023-01-13T10:32:57.563Z,4.40
2023-01-13T10:36:02.531Z,4.37
2023-01-13T10:39:16.205Z,4.25
2023-01-13T10:42:22.049Z,4.21
2023-01-13T10:45:26.030Z,4.25
2023-01-13T10:48:33.537Z,4.37
2023-01-13T10:51:38.839Z,4.41
2023-01-13T10:54:52.179Z,4.29
2023-01-13T10:57:54.907Z,4.43
2023-01-13T11:01:04.836Z,4.35
2023-01-13T11:04:27.740Z,4.32
2023-01-13T11:07:34.977Z,4.35
2023-01-13T11:10:47.108Z,4.09
2023-01-13T11:14:12.556Z,4.24
2023-01-13T11:17:22.533Z,4.10
2023-01-13T11:20:32.562Z,3.94
2023-01-13T11:23:47.483Z,3.98
2023-01-13T11:27:03.776Z,4.12
2023-01-13T11:30:09.998Z,4.22
2023-01-13T11:33:27.443Z,4.19
2023-01-13T11:37:00.012Z,4.32
2023-01-13T11:40:05.988Z,4.33
2023-01-13T11:43:32.543Z,4.32
2023-01-13T11:46:35.437Z,4.34
2023-01-13T11:49:38.788Z,4.28
2023-01-13T11:52:41.536Z,4.16
2023-01-13T11:56:05.126Z,4.08
2023-01-13T11:59:25.016Z,4.02
2023-01-13T12:02:27.551Z,4.07
2023-01-13T12:05:39.134Z,3.96
2023-01-13T12:08:47.829Z,4.03
2023-01-13T12:12:20.063Z,4.02
2023-01-13T12:15:22.638Z,4.12
2023-01-13T12:18:51.472Z,4.17
2023-01-13T12:22:02.390Z,4.17
2023-01-13T12:25:21.757Z,4.23
2023-01-13T12:28:32.546Z,4.20
2023-01-13T12:31:38.675Z,4.33
2023-01-13T12:35:09.190Z,4.37
2023-01-13T12:38:44.380Z,4.30
2023-01-13T12:42:20.252Z,4.30
2023-01-13T12:45:27.004Z,4.41
2023-01-13T12:48:53.090Z,4.56
2023-01-13T12:51:55.784Z,4.55
2023-01-13T12:54:58.524Z,4.61
2023-01-13T12:58:07.002Z,4.60
2023-01-13T13:01:15.001Z,4.67
2023-01-13T13:04:38.812Z,4.60
2023-01-13T13:07:46.102Z,4.59
2023-01-13T13:11:34.116Z,4.65
2023-01-13T13:14:39.471Z,4.76
2023-01-13T13:17:42.842Z,4.60
2023-01-13T13:21:03.970Z,4.58
2023-01-13T13:24:11.159Z,4.54
2023-01-13T13:27:28.869Z,4.51
2023-01-13T13:30:37.224Z,4.48
2023-01-13T13:33:49.230Z,4.42
2023-01-13T13:37:26.674Z,4.50
2023-01-13T13:40:52.339Z,4.55
2023-01-13T13:44:18.670Z,4.55
2023-01-13T13:47:21.659Z,4.75
2023-01-13T13:50:24.582Z,4.68
2023-01-13T13:53:30.066Z,4.72
2023-01-13T13:56:38.903Z,4.82
2023-01-13T13:59:41.366Z,4.92
2023-01-13T14:02:54.192Z,4.90
2023-01-13T14:06:07.184Z,4.75
2023-01-13T14:09:16.708Z,4.64
2023-01-13T14:12:24.777Z,4.57
2023-01-13T14:15:33.992Z,4.58
2023-01-13T14:18:47.799Z,4.58
2023-01-13T14:21:50.359Z,4.66
2023-01-13T14:24:57.544Z,4.62
2023-01-13T14:28:08.100Z,4.64
2023-01-13T14:31:12.827Z,4.68
2023-01-13T14:34:32.106Z,4.80
2023-01-13T14:37:39.081Z,4.81
2023-01-13T14:40:45.752Z,4.77
2023-01-13T14:43:50.579Z,4.92
2023-01-13T14:46:58.751Z,4.95
2023-01-13T14:50:06.475Z,5.02
2023-01-13T14:53:29.335Z,4.99
2023-01-13T14:56:49.936Z,4.95
2023-01-13T14:59:57.428Z,4.88
2023-01-13T15:03:07.274Z,4.89
2023-01-13T15:06:24.935Z,4.79
2023-01-13T15:09:33.923Z,4.85
2023-01-13T15:12:39.781Z,4.83
2023-01-13T15:15:42.308Z,4.81
2023-01-13T15:18:45.652Z,4.78
2023-01-13T15:21:48.373Z,4.75
2023-01-13T15:24:51.208Z,4.73
2023-01-13T15:27:53.821Z,4.71
2023-01-13T15:31:00.718Z,4.66
2023-01-13T15:34:03.254Z,4.66
2023-01-13T15:37:05.786Z,4.60
2023-01-13T15:40:18.832Z,4.70
2023-01-13T15:43:42.062Z,4.66
2023-01-13T15:46:45.289Z,4.72
2023-01-13T15:49:47.991Z,4.70
2023-01-13T15:52:50.487Z,4.68
2023-01-13T15:55:56.834Z,4.76
2023-01-13T15:58:59.441Z,4.77
2023-01-13T16:02:02.139Z,4.72
2023-01-13T16:05:05.858Z,4.79
2023-01-13T16:08:15.558Z,4.81
2023-01-13T16:11:18.029Z,4.85
2023-01-13T16:14:20.558Z,4.83
2023-01-13T16:17:25.284Z,4.71
2023-01-13T16:20:29.953Z,4.71
2023-01-13T16:23:32.556Z,4.79
2023-01-13T16:26:37.614Z,4.67
2023-01-13T16:29:40.273Z,4.65
2023-01-13T16:32:42.763Z,4.65
2023-01-13T16:36:11.683Z,4.72
2023-01-13T16:39:20.577Z,4.74
2023-01-13T16:42:23.169Z,4.80
2023-01-13T16:45:26.692Z,4.85
2023-01-13T16:48:29.285Z,4.94
2023-01-13T16:51:33.317Z,4.96
2023-01-13T16:54:35.764Z,4.98
2023-01-13T16:57:38.225Z,5.03
2023-01-13T17:00:41.483Z,4.97
2023-01-13T17:03:44.562Z,5.01
2023-01-13T17:07:00.546Z,5.04
2023-01-13T17:10:03.794Z,5.10
2023-01-13T17:13:15.624Z,5.14
2023-01-13T17:16:22.406Z,4.99
2023-01-13T17:19:26.117Z,4.97
2023-01-13T17:22:30.831Z,5.00
2023-01-13T17:25:33.320Z,5.18
2023-01-13T17:28:35.868Z,5.19
2023-01-13T17:31:39.098Z,5.17
2023-01-13T17:34:41.639Z,5.13
2023-01-13T17:37:44.247Z,5.08
2023-01-13T17:40:46.872Z,5.12
2023-01-13T17:43:50.508Z,5.11
2023-01-13T17:46:52.957Z,5.14
2023-01-13T17:49:55.768Z,5.23
2023-01-13T17:52:58.213Z,5.28
2023-01-13T17:56:00.675Z,5.29
2023-01-13T17:59:03.204Z,5.30
2023-01-13T18:02:06.040Z,5.30
2023-01-13T18:05:09.301Z,5.29
2023-01-13T18:08:11.802Z,5.33
2023-01-13T18:11:18.761Z,5.34
2023-01-13T18:14:23.101Z,5.43
2023-01-13T18:17:25.566Z,5.42
2023-01-13T18:20:49.157Z,5.42
2023-01-13T18:24:15.556Z,5.46
2023-01-13T18:27:26.547Z,5.49
2023-01-13T18:30:29.937Z,5.45
2023-01-13T18:33:32.464Z,5.42
2023-01-13T18:36:35.134Z,5.42
2023-01-13T18:39:37.914Z,5.47
2023-01-13T18:42:56.220Z,5.51
2023-01-13T18:45:58.865Z,5.54
2023-01-13T18:49:01.686Z,5.53
2023-01-13T18:52:04.628Z,5.51
2023-01-13T18:55:07.434Z,5.49
2023-01-13T18:58:10.489Z,5.52
2023-01-13T19:01:13.064Z,5.52
2023-01-13T19:04:16.993Z,5.45
2023-01-13T19:07:24.348Z,5.47
2023-01-13T19:10:31.879Z,5.45
2023-01-13T19:13:37.269Z,5.42
2023-01-13T19:16:40.096Z,5.48
2023-01-13T19:19:48.417Z,5.51
2023-01-13T19:22:54.334Z,5.47
2023-01-13T19:26:05.005Z,5.50
2023-01-13T19:29:08.676Z,5.57
2023-01-13T19:32:12.718Z,5.55
2023-01-13T19:35:18.037Z,5.56
2023-01-13T19:38:21.699Z,5.54
2023-01-13T19:41:47.064Z,5.48
2023-01-13T19:45:10.246Z,5.41
2023-01-13T19:48:16.054Z,5.42
2023-01-13T19:51:18.699Z,5.38
2023-01-13T19:54:21.513Z,5.38
2023-01-13T19:57:25.729Z,5.35
2023-01-13T20:00:29.256Z,5.30
2023-01-13T20:03:35.907Z,5.28
2023-01-13T20:06:38.599Z,5.33
2023-01-13T20:09:45.151Z,5.30
2023-01-13T20:12:48.227Z,5.31
2023-01-13T20:15:51.003Z,5.34
2023-01-13T20:18:54.118Z,5.28
2023-01-13T20:21:56.741Z,5.18
2023-01-13T20:24:59.260Z,5.17
2023-01-13T20:28:02.542Z,5.09
2023-01-13T20:31:09.767Z,5.17
2023-01-13T20:34:14.605Z,5.23
2023-01-13T20:37:17.134Z,5.28
2023-01-13T20:40:20.882Z,5.46
2023-01-13T20:43:23.554Z,5.26
2023-01-13T20:46:26.181Z,5.30
2023-01-13T20:49:30.305Z,5.35
2023-01-13T20:52:33.603Z,5.35
2023-01-13T20:55:38.982Z,5.22
2023-01-13T20:58:41.861Z,5.19
2023-01-13T21:01:44.687Z,5.18
2023-01-13T21:04:47.230Z,5.14
2023-01-13T21:07:49.979Z,5.20
2023-01-13T21:11:00.104Z,5.15
2023-01-13T21:14:21.534Z,5.08
2023-01-13T21:17:42.350Z,5.12
2023-01-13T21:20:45.182Z,5.19
2023-01-13T21:23:52.794Z,5.24
2023-01-13T21:27:00.360Z,5.19
2023-01-13T21:30:03.022Z,5.19
2023-01-13T21:33:06.835Z,5.20
2023-01-13T21:36:12.699Z,5.17
2023-01-13T21:39:16.086Z,5.13
2023-01-13T21:42:37.004Z,5.12
2023-01-13T21:45:58.195Z,5.35
2023-01-13T21:49:00.817Z,5.32
2023-01-13T21:52:03.517Z,5.29
2023-01-13T21:55:23.702Z,5.27
2023-01-13T21:58:26.223Z,5.22
2023-01-13T22:01:28.809Z,5.26
2023-01-13T22:04:33.297Z,5.22
2023-01-13T22:07:36.997Z,5.26
2023-01-13T22:10:58.413Z,5.34
2023-01-13T22:14:07.086Z,5.45
2023-01-13T22:17:09.530Z,5.17
2023-01-13T22:20:13.356Z,5.13
2023-01-13T22:23:17.203Z,5.07
2023-01-13T22:26:19.741Z,5.07
2023-01-13T22:29:22.229Z,5.01
2023-01-13T22:32:24.820Z,4.90
2023-01-13T22:35:27.617Z,4.92
2023-01-13T22:38:30.133Z,5.08
2023-01-13T22:41:32.732Z,5.06
2023-01-13T22:44:35.337Z,4.95
2023-01-13T22:47:38.048Z,4.98
2023-01-13T22:50:40.479Z,4.86
2023-01-13T22:53:43.498Z,4.88
2023-01-13T22:56:45.977Z,4.95
2023-01-13T22:59:48.754Z,4.92
2023-01-13T23:02:51.312Z,4.89
2023-01-13T23:05:57.436Z,4.93
2023-01-13T23:09:00.351Z,4.92
2023-01-13T23:12:03.187Z,5.00
2023-01-13T23:15:06.128Z,5.00
2023-01-13T23:18:08.596Z,5.05
2023-01-13T23:21:13.716Z,5.02
2023-01-13T23:24:16.245Z,5.05
2023-01-13T23:27:18.947Z,5.08
2023-01-13T23:30:22.416Z,4.99
2023-01-13T23:33:25.454Z,4.96
2023-01-13T23:36:28.963Z,4.88
2023-01-13T23:39:31.783Z,4.86
2023-01-13T23:42:34.360Z,4.96
2023-01-13T23:45:37.584Z,4.92
2023-01-13T23:48:40.385Z,4.88
2023-01-13T23:51:42.899Z,4.92
2023-01-13T23:54:45.620Z,4.91
2023-01-13T23:57:48.117Z,4.99
